Aberdeen, NJ

3:58 AM EDT on October 22, 2014 (GMT -0400)
Keyport Yacht Club | Change Station
CLOSE
Current Station
Personal Weather Station
Location: Keyport, NJ
Elevation: 26 ft
Nearby Weather Stations

Elev 26 ft 40.44 °N, 74.20 °W | Updated 13 minutes ago

Overcast
Overcast
58.6 °F
Feels Like 58.6 °F
N
21.0
Wind Variable Wind from ENE

Today
High -- | Low -- °F
--% Chance of Precip.
Yesterday
High -- | Low -- °F
Precip. -- in
7:15 AM 6:06 PM
Waning Crescent, 3% visible
Pressure 29.88 in
Visibility 10.0 miles
Clouds Mostly Cloudy 1200 ft
Mostly Cloudy 2400 ft
Overcast 3500 ft
Dew Point 55 °F
Humidity 89%
Rainfall 0.00 in
Snow Depth Not available.
UV 0 out of 12
Pollen .70 out of 12
Air Quality Not available.
Flu Activity Sporadic
METAR KLDJ 220755Z AUTO 03009KT 10SM VCTS BKN012 BKN024 OVC035 16/13 A2988 RMK AO2 LTG DSNT S AND SW T01570134

More Conditions Fewer Conditions

Pressure 29.88 in
Visibility 10.0 miles
Clouds Mostly Cloudy 1200 ft
Mostly Cloudy 2400 ft
Overcast 3500 ft
Dew Point 55 °F
Humidity 89%
Rainfall 0.00 in
Snow Depth Not available.
UV 0 out of 12
Pollen .70 out of 12
Air Quality Not available.
Flu Activity Sporadic
METAR KLDJ 220755Z AUTO 03009KT 10SM VCTS BKN012 BKN024 OVC035 16/13 A2988 RMK AO2 LTG DSNT S AND SW T01570134

More Conditions Fewer Conditions

10-Day Weather Forecast

Almanac

Astronomy

Oct. 22, 2014 Rise Set
Actual Time 7:15 AM EDT 6:06 PM EDT
Civil Twilight 6:47 AM EDT 6:34 PM EDT
Nautical Twilight 6:15 AM EDT 7:06 PM EDT
Astronomical Twilight 5:44 AM EDT 7:37 PM EDT
Moon 5:54 AM EDT 5:32 PM EDT
Length of Visible Light 11h 46m
Length of Day
10h 51m
Tomorrow will be 2m 31s shorter.
Waning Crescent, 3% of the Moon is Illuminated
Today
Waning Crescent
Oct 23
New
Oct 30
First Quarter
Nov 6
Full
Nov 14
Last Quarter

Today's Extremes

State Highs State Lows

Community

WunderPhotos

Upload Photos

1,763,889 photos uploaded!

Nearby

Snow Depth

Station Depth Elevation
No new snow has been reported.

Earthquake Activity

City Distance Mag. Time & Date
No recent earthquake activity has been reported nearby.
Minimum magnitude displayed is 2.5.

Coastal Water Temperatures

Place Temperature
Sandy Hook, NJ 61.0 °F
The Battery, NY 63.0 °F
Bergen Point West Reach, NJ 62.1 °F

Nearby Weather Stations